Sayner, Wisconsin
Current Conditions -  °F | °C
As of 10:55 PM on Thursday 30 Oct 2014 (Local Time) from KARV Reporting Station
Moderate Snow Moderate Snow  
Wind Chill: 26°   Ceiling: 600
Heat Index: 34°   Visibility: 1.2mi
Dew Point: 32°   Wind: 10mph
Humidity: 94%   Direction: 340°NNW
Pressure: 30.07"   Gusts: 16mph
Location:  45.99°N, 89.53°W
Report Text: KARV 310355Z AUTO 34009G14KT 1 1/4SM SN BKN006 BKN085 BKN100 01/00 A3007 RMK AO2 P0001 T00110002
Loading
Personal Weather Stations






























Interactive Weather Map
Tropical Storm Tracking
New forecast layout! Learn more

10-Day Weather Forecast

Advertisements
Track Severe Weather on mobile